Time;durP1;ratioP1;P1;durP2;ratioP2;P2;SDS_P1;SDS_P2;PMS_P1;PMS_P2;Temp;Humidity;BMP_temperature;BMP_pressure;BME280_temperature;BME280_humidity;BME280_pressure;Samples;Min_cycle;Max_cycle;Signal;HPM_P1;HPM_P2
2023/09/06 00:01:04;;;;;;;6.40;2.80;;;;;;;22.39;67.76;101411.80;108803;1259;72641;-82
2023/09/06 00:03:55;;;;;;;5.30;2.80;;;;;;;22.35;68.56;101404.16;108824;1259;60926;-82
2023/09/06 00:06:44;;;;;;;5.40;2.90;;;;;;;22.41;68.64;101403.22;108863;1260;60574;-82
2023/09/06 00:09:32;;;;;;;6.90;3.90;;;;;;;22.47;68.50;101408.71;108817;1256;73791;-83
2023/09/06 00:12:21;;;;;;;7.80;2.80;;;;;;;22.45;68.94;101408.08;108804;1257;67855;-83
2023/09/06 00:15:10;;;;;;;4.60;2.90;;;;;;;22.42;69.52;101410.65;108776;1260;70846;-83
2023/09/06 00:17:58;;;;;;;5.00;2.90;;;;;;;22.37;70.05;101410.05;108719;1257;61776;-83
2023/09/06 00:20:46;;;;;;;4.40;2.30;;;;;;;22.28;70.91;101408.42;108837;1257;58791;-83
2023/09/06 00:23:35;;;;;;;6.90;2.90;;;;;;;22.24;71.24;101410.25;108777;1257;73921;-82
2023/09/06 00:26:23;;;;;;;5.70;3.00;;;;;;;22.20;71.46;101407.38;108856;1261;68532;-83
2023/09/06 00:29:11;;;;;;;4.20;3.10;;;;;;;22.27;70.88;101410.30;108778;1257;71894;-83
2023/09/06 00:32:00;;;;;;;4.40;2.80;;;;;;;22.27;70.90;101407.58;108841;1257;59495;-83
2023/09/06 00:34:48;;;;;;;4.70;2.90;;;;;;;22.41;70.05;101407.18;108841;1257;60100;-83
2023/09/06 00:37:37;;;;;;;5.00;2.90;;;;;;;22.34;70.45;101412.08;108833;1257;73862;-83
2023/09/06 00:40:26;;;;;;;5.40;2.50;;;;;;;22.37;70.42;101413.36;108828;1257;68360;-83
2023/09/06 00:43:15;;;;;;;6.70;4.40;;;;;;;22.43;69.66;101409.82;108835;1257;72854;-83
2023/09/06 00:46:07;;;;;;;5.40;2.90;;;;;;;22.43;70.00;101411.39;108819;1257;60060;-82
2023/09/06 00:48:56;;;;;;;;;;;;;;;22.51;69.83;101413.54;108832;1257;60539;-83
2023/09/06 00:51:44;;;;;;;4.90;3.30;;;;;;;22.34;71.61;101411.77;108823;1260;73853;-83
2023/09/06 00:54:33;;;;;;;6.10;3.10;;;;;;;22.57;71.15;101408.61;108827;1258;67346;-82
2023/09/06 00:57:21;;;;;;;6.30;3.10;;;;;;;22.79;70.29;101409.21;108785;1259;71867;-82
2023/09/06 01:00:21;;;;;;;6.60;2.80;;;;;;;22.82;70.69;101406.45;108742;1257;59964;-83
2023/09/06 01:03:09;;;;;;;8.10;3.10;;;;;;;22.78;71.43;101402.64;108797;1256;58803;-82
2023/09/06 01:06:09;;;;;;;6.60;3.30;;;;;;;22.97;70.63;101402.90;108869;1257;73946;-82
2023/09/06 01:08:58;;;;;;;5.00;3.00;;;;;;;22.94;70.71;101399.80;108892;1256;67245;-83
2023/09/06 01:11:46;;;;;;;6.10;3.20;;;;;;;22.99;70.47;101402.86;108748;1256;72705;-82
2023/09/06 01:14:38;;;;;;;5.00;3.10;;;;;;;22.99;70.30;101403.58;108760;1257;61338;-83
2023/09/06 01:17:27;;;;;;;4.80;3.10;;;;;;;22.96;70.32;101402.80;108852;1257;60433;-83
2023/09/06 01:20:27;;;;;;;5.10;3.30;;;;;;;22.98;69.97;101402.97;108820;1256;73314;-83
2023/09/06 01:23:34;;;;;;;6.90;3.60;;;;;;;22.97;69.60;101401.55;108765;1257;69382;-83
2023/09/06 01:26:22;;;;;;;5.70;3.60;;;;;;;22.86;69.94;101402.08;108938;1257;71137;-83
2023/09/06 01:29:11;;;;;;;6.90;3.80;;;;;;;22.83;70.12;101408.66;108848;1255;59318;-83
2023/09/06 01:32:01;;;;;;;5.80;3.40;;;;;;;22.85;69.53;101407.09;108768;1257;61843;-82
2023/09/06 01:34:49;;;;;;;4.20;3.00;;;;;;;22.78;69.79;101403.21;108845;1259;73827;-83
2023/09/06 01:37:38;;;;;;;4.80;3.00;;;;;;;22.83;69.07;101403.65;108824;1257;69338;-83
2023/09/06 01:40:27;;;;;;;7.00;3.80;;;;;;;22.80;68.93;101401.55;108888;1256;71422;-83
2023/09/06 01:43:17;;;;;;;7.90;3.60;;;;;;;22.76;68.64;101406.79;108893;1256;60419;-83
2023/09/06 01:46:05;;;;;;;8.60;3.50;;;;;;;22.55;69.65;101408.77;108895;1256;58748;-83
2023/09/06 01:48:54;;;;;;;6.30;3.60;;;;;;;22.61;68.93;101408.13;108907;1256;73898;-83
2023/09/06 01:51:42;;;;;;;6.10;3.90;;;;;;;22.50;69.31;101406.98;108888;1256;67282;-83
2023/09/06 01:54:30;;;;;;;8.40;3.50;;;;;;;22.49;69.14;101410.67;108915;1257;72646;-83
2023/09/06 01:57:19;;;;;;;7.20;3.60;;;;;;;22.46;68.81;101412.07;108931;1256;60508;-81
2023/09/06 02:00:27;;;;;;;7.50;3.60;;;;;;;22.37;68.67;101414.98;108948;1256;60206;-80
2023/09/06 02:03:16;;;;;;;7.50;3.50;;;;;;;22.26;68.32;101411.53;108806;1257;74644;-83
2023/09/06 02:06:05;;;;;;;6.40;3.30;;;;;;;22.14;68.78;101411.00;108859;1257;68416;-83
2023/09/06 02:08:53;;;;;;;6.60;3.00;;;;;;;22.27;67.11;101411.73;108889;1256;72666;-83
2023/09/06 02:11:41;;;;;;;9.00;3.40;;;;;;;22.00;67.99;101412.34;108850;1257;60592;-83
2023/09/06 02:14:30;;;;;;;7.50;3.60;;;;;;;21.92;69.13;101413.48;108816;1256;58538;-83
2023/09/06 02:17:20;;;;;;;7.70;3.90;;;;;;;21.79;70.23;101415.65;108853;1257;73839;-81
2023/09/06 02:20:17;;;;;;;6.40;3.70;;;;;;;21.84;69.91;101419.13;108864;1257;68589;-81
2023/09/06 02:23:05;;;;;;;6.50;3.70;;;;;;;22.10;68.43;101417.30;108946;1256;72784;-81
2023/09/06 02:25:54;;;;;;;6.70;3.30;;;;;;;21.88;69.66;101419.23;108846;1257;60094;-81
2023/09/06 02:28:42;;;;;;;8.00;3.30;;;;;;;21.62;71.75;101419.30;108847;1257;60058;-81
2023/09/06 02:31:33;;;;;;;6.10;3.30;;;;;;;21.58;72.38;101417.86;108834;1257;75456;-81
2023/09/06 02:34:21;;;;;;;6.20;3.50;;;;;;;21.70;71.82;101422.27;108825;1257;68619;-81
2023/09/06 02:37:09;;;;;;;8.60;3.60;;;;;;;21.82;71.13;101423.50;108816;1256;71627;-81
2023/09/06 02:39:58;;;;;;;6.30;3.50;;;;;;;21.68;71.94;101425.83;108821;1256;61301;-81
2023/09/06 02:42:48;;;;;;;8.30;3.60;;;;;;;21.57;72.62;101423.77;108818;1257;60490;-81
2023/09/06 02:45:37;;;;;;;8.60;3.70;;;;;;;21.29;74.84;101431.09;108768;1256;72574;-81
2023/09/06 02:48:27;;;;;;;7.30;3.90;;;;;;;21.30;74.94;101429.79;108911;1256;68406;-81
2023/09/06 02:51:16;;;;;;;12.00;4.80;;;;;;;21.25;75.32;101429.70;108823;1257;72785;-81
2023/09/06 02:54:04;;;;;;;7.80;3.80;;;;;;;21.22;75.50;101429.73;108823;1257;60402;-81
2023/09/06 02:56:52;;;;;;;7.70;3.60;;;;;;;21.12;76.19;101429.83;108864;1256;58831;-81
2023/09/06 02:59:41;;;;;;;5.50;3.60;;;;;;;21.07;76.57;101428.64;108770;1257;75243;-81
2023/09/06 03:02:29;;;;;;;9.40;3.80;;;;;;;20.77;78.91;101432.81;108754;1257;68422;-81
2023/09/06 03:05:17;;;;;;;6.60;4.10;;;;;;;20.75;79.52;101434.08;108849;1256;72732;-81
2023/09/06 03:08:07;;;;;;;5.50;3.40;;;;;;;20.89;78.12;101437.94;108875;1257;58753;-81
2023/09/06 03:10:55;;;;;;;8.70;4.30;;;;;;;20.86;77.99;101441.35;108787;1257;58220;-81
2023/09/06 03:13:45;;;;;;;7.40;4.20;;;;;;;20.81;78.13;101442.55;108860;1256;73748;-81
2023/09/06 03:16:38;;;;;;;10.10;4.20;;;;;;;20.80;77.93;101442.98;108775;1257;68757;-82
2023/09/06 03:19:31;;;;;;;6.00;3.80;;;;;;;20.81;77.82;101444.98;108815;1256;71360;-82
2023/09/06 03:22:21;;;;;;;7.40;3.90;;;;;;;20.81;77.85;101445.69;108733;1257;58907;-82
2023/09/06 03:25:10;;;;;;;7.20;3.90;;;;;;;20.84;77.41;101442.59;108863;1256;58861;-82
2023/09/06 03:28:01;;;;;;;9.90;4.20;;;;;;;20.67;78.58;101443.12;108868;1257;72402;-82
2023/09/06 03:30:52;;;;;;;7.60;4.10;;;;;;;20.67;79.04;101442.34;108840;1257;68338;-82
2023/09/06 03:33:40;;;;;;;10.20;4.70;;;;;;;20.73;78.63;101443.10;108868;1257;71739;-82
2023/09/06 03:36:29;;;;;;;9.10;4.40;;;;;;;20.81;78.09;101440.64;108788;1257;60507;-81
2023/09/06 23:19:25;;;;;;;8.30;5.20;;;;;;;21.49;88.76;101294.39;109133;1253;58870;-82
2023/09/06 23:21:56;;;;;;;10.60;4.90;;;;;;;21.28;90.55;101293.11;109108;1251;73830;-82
2023/09/06 23:24:25;;;;;;;10.10;4.80;;;;;;;21.38;90.97;101298.15;109060;1253;67693;-82
2023/09/06 23:26:58;;;;;;;7.00;5.00;;;;;;;21.47;90.58;101301.08;109072;1253;72653;-82
2023/09/06 23:29:34;;;;;;;8.90;4.80;;;;;;;21.44;91.18;101301.75;109174;1252;58840;-82
2023/09/06 23:32:04;;;;;;;8.70;5.40;;;;;;;21.58;90.65;101302.80;109194;1252;60458;-82
2023/09/06 23:34:34;;;;;;;7.20;4.60;;;;;;;21.81;89.40;101304.63;109060;1253;72690;-82
2023/09/06 23:37:05;;;;;;;7.10;4.70;;;;;;;21.69;89.48;101306.94;109094;1253;67193;-82
2023/09/06 23:39:33;;;;;;;8.80;4.70;;;;;;;21.64;89.63;101308.44;109177;1253;72782;-82
2023/09/06 23:42:09;;;;;;;10.10;4.70;;;;;;;21.79;88.67;101305.34;109157;1252;60073;-83
2023/09/06 23:44:40;;;;;;;9.20;5.20;;;;;;;22.00;87.44;101296.64;109142;1253;58141;-82
2023/09/06 23:47:10;;;;;;;8.80;4.50;;;;;;;22.05;87.56;101297.73;109099;1253;73867;-82
2023/09/06 23:49:39;;;;;;;7.90;4.50;;;;;;;22.02;87.84;101294.27;109124;1253;67251;-82
2023/09/06 23:52:06;;;;;;;11.10;4.60;;;;;;;22.12;87.37;101294.01;109132;1253;72724;-82
2023/09/06 23:54:34;;;;;;;7.30;4.60;;;;;;;22.07;87.91;101300.98;109221;1253;58900;-82
2023/09/06 23:57:18;;;;;;;9.30;4.90;;;;;;;22.15;86.34;101302.80;109165;1253;58780;-82
2023/09/06 23:59:46;;;;;;;7.60;4.50;;;;;;;21.80;88.16;101311.50;109023;1253;72594;-82
